Time;durP1;ratioP1;P1;durP2;ratioP2;P2;SDS_P1;SDS_P2;PMS_P1;PMS_P2;Temp;Humidity;BMP_temperature;BMP_pressure;BME280_temperature;BME280_humidity;BME280_pressure;Samples;Min_cycle;Max_cycle;Signal;HPM_P1;HPM_P2
2022/02/06 00:00:15;;;;;;;;;;;7.10;1.00;;;;;;5052876;28;19936;-82
2022/02/06 00:02:45;;;;;;;;;;;7.10;1.00;;;;;;5036753;28;19909;-82
2022/02/06 00:05:11;;;;;;;;;;;7.10;99.90;;;;;;5038853;28;19917;-82
2022/02/06 00:07:37;;;;;;;;;;;7.10;1.00;;;;;;5038457;28;20016;-81
2022/02/06 00:10:03;;;;;;;;;;;7.10;99.90;;;;;;5037170;28;19972;-82
2022/02/06 00:12:28;;;;;;;;;;;7.10;1.00;;;;;;5033460;28;19909;-82
2022/02/06 00:14:54;;;;;;;;;;;7.10;8.90;;;;;;5043595;28;19920;-82
2022/02/06 00:17:19;;;;;;;;;;;7.10;1.00;;;;;;5039002;28;19916;-82
2022/02/06 00:19:45;;;;;;;;;;;7.10;99.90;;;;;;5027193;28;19920;-83
2022/02/06 00:22:26;;;;;;;;;;;7.10;1.00;;;;;;5035237;28;19909;-82
2022/02/06 00:25:09;;;;;;;;;;;7.20;99.90;;;;;;5035675;28;19913;-82
2022/02/06 00:27:48;;;;;;;;;;;7.20;99.90;;;;;;5029828;28;19920;-82
2022/02/06 00:30:33;;;;;;;;;;;7.20;1.00;;;;;;5035718;28;19959;-81
2022/02/06 00:33:07;;;;;;;;;;;7.20;1.00;;;;;;5030021;28;21700;-82
2022/02/06 00:43:25;;;;;;;;;;;7.30;99.90;;;;;;5035479;28;19967;-81
2022/02/06 00:45:51;;;;;;;;;;;7.40;99.90;;;;;;5036650;28;19948;-82
2022/02/06 00:48:26;;;;;;;;;;;7.40;99.90;;;;;;5036207;28;19921;-81
2022/02/06 00:51:08;;;;;;;;;;;7.40;99.80;;;;;;5037423;28;19909;-83
2022/02/06 00:53:33;;;;;;;;;;;7.40;99.90;;;;;;5033282;28;19984;-82
2022/02/06 00:55:59;;;;;;;;;;;7.40;99.90;;;;;;5037461;28;20265;-83
2022/02/06 00:58:24;;;;;;;;;;;7.40;99.90;;;;;;5037460;28;19913;-82
2022/02/06 01:00:50;;;;;;;;;;;7.40;99.90;;;;;;5031105;28;20361;-82
2022/02/06 01:03:16;;;;;;;;;;;7.40;99.90;;;;;;5031559;28;19917;-83
2022/02/06 01:05:41;;;;;;;;;;;7.40;99.90;;;;;;5038238;28;19960;-83
2022/02/06 01:08:07;;;;;;;;;;;7.40;99.90;;;;;;5038749;28;19920;-83
2022/02/06 01:10:33;;;;;;;;;;;7.40;99.90;;;;;;5038725;28;19963;-83
2022/02/06 01:13:12;;;;;;;;;;;7.40;99.90;;;;;;5038064;28;19914;-83
2022/02/06 01:15:38;;;;;;;;;;;7.50;99.90;;;;;;5037644;28;20424;-83
2022/02/06 01:18:07;;;;;;;;;;;7.50;99.90;;;;;;5035707;28;19917;-83
2022/02/06 01:20:42;;;;;;;;;;;7.50;99.90;;;;;;5053232;28;20028;-83
2022/02/06 01:23:25;;;;;;;;;;;7.50;99.90;;;;;;5044987;28;19913;-82
2022/02/06 01:25:56;;;;;;;;;;;7.60;96.30;;;;;;5043083;28;19914;-84
2022/02/06 01:28:31;;;;;;;;;;;7.60;30.60;;;;;;5031813;28;19975;-83
2022/02/06 01:31:33;;;;;;;;;;;7.60;1.00;;;;;;5038224;28;19913;-83
2022/02/06 01:33:52;;;;;;;;;;;7.70;1.00;;;;;;5035018;28;20012;-83
2022/02/06 01:41:20;;;;;;;;;;;7.70;1.00;;;;;;5037788;28;19913;-82
2022/02/06 01:43:55;;;;;;;;;;;7.70;1.00;;;;;;5038662;28;19909;-82
2022/02/06 02:21:43;;;;;;;;;;;7.80;1.00;;;;;;5037248;28;19924;-83
2022/02/06 02:32:25;;;;;;;;;;;7.90;1.00;;;;;;5033949;28;20031;-83
2022/02/06 02:48:09;;;;;;;;;;;7.80;1.00;;;;;;5036643;28;19952;-83
2022/02/06 02:50:39;;;;;;;;;;;7.70;1.00;;;;;;5032277;28;19993;-83
2022/02/06 02:56:40;;;;;;;;;;;7.70;1.00;;;;;;5036096;28;19913;-83
2022/02/06 03:03:21;;;;;;;;;;;7.70;1.00;;;;;;5035197;28;19921;-82
2022/02/06 03:05:52;;;;;;;;;;;7.70;99.90;;;;;;5028084;28;19917;-83
2022/02/06 03:08:19;;;;;;;;;;;7.70;1.00;;;;;;5033537;28;19960;-83
2022/02/06 03:10:44;;;;;;;;;;;7.70;99.90;;;;;;5041849;28;19913;-83
2022/02/06 03:13:13;;;;;;;;;;;7.70;99.90;;;;;;5033808;28;19913;-82
2022/02/06 03:18:15;;;;;;;;;;;7.70;99.90;;;;;;5035326;28;20427;-82
2022/02/06 03:20:40;;;;;;;;;;;7.60;1.00;;;;;;5032961;28;20431;-83
2022/02/06 03:23:07;;;;;;;;;;;7.60;54.90;;;;;;5032114;28;19913;-83
2022/02/06 03:25:35;;;;;;;;;;;7.60;27.30;;;;;;5034493;28;20036;-83
2022/02/06 03:28:02;;;;;;;;;;;7.50;1.00;;;;;;5035050;28;19920;-83
2022/02/06 03:30:29;;;;;;;;;;;7.50;99.90;;;;;;5034073;28;19917;-83
2022/02/06 03:32:56;;;;;;;;;;;7.50;99.90;;;;;;5033591;28;19936;-83
2022/02/06 03:35:21;;;;;;;;;;;7.50;99.90;;;;;;5035630;28;19913;-83
2022/02/06 03:37:47;;;;;;;;;;;7.50;99.90;;;;;;5055268;28;19936;-83
2022/02/06 03:40:21;;;;;;;;;;;7.40;99.90;;;;;;5038402;28;19913;-83
2022/02/06 03:43:04;;;;;;;;;;;7.40;99.90;;;;;;5039427;28;19913;-84
2022/02/06 03:45:44;;;;;;;;;;;7.40;99.90;;;;;;5027073;28;20293;-83
2022/02/06 03:48:22;;;;;;;;;;;7.40;99.90;;;;;;5034589;28;19913;-83
2022/02/06 03:50:53;;;;;;;;;;;7.40;99.90;;;;;;5035541;28;19920;-83
2022/02/06 03:53:22;;;;;;;;;;;7.30;1.00;;;;;;5031877;28;19925;-83
2022/02/06 03:55:49;;;;;;;;;;;7.30;1.00;;;;;;5030930;28;19921;-83
2022/02/06 03:58:15;;;;;;;;;;;7.30;1.00;;;;;;5034183;28;19913;-83
2022/02/06 04:00:40;;;;;;;;;;;7.30;1.00;;;;;;5034312;28;20323;-83
2022/02/06 04:03:06;;;;;;;;;;;7.30;1.00;;;;;;5034586;28;19915;-83
2022/02/06 04:05:32;;;;;;;;;;;7.30;99.90;;;;;;5031882;28;20004;-83
2022/02/06 04:07:57;;;;;;;;;;;7.30;1.00;;;;;;5032142;28;19913;-83
2022/02/06 04:10:25;;;;;;;;;;;7.30;99.90;;;;;;5027523;28;19921;-83
2022/02/06 04:12:50;;;;;;;;;;;7.30;99.90;;;;;;5034861;28;19959;-83
2022/02/06 04:15:26;;;;;;;;;;;7.30;99.90;;;;;;5036174;28;20011;-82
2022/02/06 04:20:36;;;;;;;;;;;7.40;1.00;;;;;;5037599;28;19975;-82
2022/02/06 04:23:01;;;;;;;;;;;7.40;1.00;;;;;;5035893;28;19909;-83
2022/02/06 04:25:26;;;;;;;;;;;7.40;1.00;;;;;;5031578;28;19921;-83
2022/02/06 04:27:52;;;;;;;;;;;7.40;1.00;;;;;;5035119;28;19909;-82
2022/02/06 04:30:17;;;;;;;;;;;7.40;1.00;;;;;;5032496;28;19996;-82
2022/02/06 04:32:43;;;;;;;;;;;7.40;1.00;;;;;;5033522;28;19922;-83
2022/02/06 04:35:15;;;;;;;;;;;7.40;1.00;;;;;;5037761;28;20404;-82
2022/02/06 04:38:00;;;;;;;;;;;7.40;1.00;;;;;;5039154;28;19925;-82
2022/02/06 04:40:47;;;;;;;;;;;7.40;1.00;;;;;;5033055;28;19921;-82
2022/02/06 04:46:39;;;;;;;;;;;7.40;1.00;;;;;;5036241;28;19990;-82
2022/02/06 05:23:49;;;;;;;;;;;7.30;1.00;;;;;;5033204;28;19925;-82
2022/02/06 05:29:40;;;;;;;;;;;7.30;1.00;;;;;;5031892;28;19924;-81
2022/02/06 05:34:16;;;;;;;;;;;7.40;1.00;;;;;;5034256;28;19913;-81
2022/02/06 05:36:41;;;;;;;;;;;7.40;1.00;;;;;;5034692;28;19918;-81
2022/02/06 05:39:07;;;;;;;;;;;7.40;1.00;;;;;;5031386;28;19913;-82
2022/02/06 05:41:32;;;;;;;;;;;7.40;1.00;;;;;;5031824;28;19921;-82
2022/02/06 05:43:58;;;;;;;;;;;7.40;1.00;;;;;;5034482;28;19941;-82
2022/02/06 05:46:23;;;;;;;;;;;7.40;1.00;;;;;;5033588;28;19940;-82
2022/02/06 05:48:49;;;;;;;;;;;7.40;1.00;;;;;;5034140;28;19920;-81
2022/02/06 05:51:15;;;;;;;;;;;7.40;1.00;;;;;;5034161;28;20140;-81
2022/02/06 05:53:41;;;;;;;;;;;7.40;1.00;;;;;;5031959;28;19952;-81
2022/02/06 05:56:06;;;;;;;;;;;7.40;1.00;;;;;;5031257;28;19920;-80
2022/02/06 05:58:32;;;;;;;;;;;7.40;1.00;;;;;;5033856;28;19913;-81
2022/02/06 06:00:58;;;;;;;;;;;7.40;1.00;;;;;;5033917;28;19976;-81
2022/02/06 06:03:23;;;;;;;;;;;7.40;1.00;;;;;;5030844;28;20003;-81
2022/02/06 06:05:49;;;;;;;;;;;7.40;1.00;;;;;;5031019;28;19924;-81
2022/02/06 06:08:14;;;;;;;;;;;7.40;1.00;;;;;;5033663;28;20313;-81
2022/02/06 06:10:40;;;;;;;;;;;7.40;1.00;;;;;;5049395;28;19917;-81
2022/02/06 06:13:05;;;;;;;;;;;7.30;1.00;;;;;;5030953;28;19966;-81
2022/02/06 06:15:31;;;;;;;;;;;7.40;1.00;;;;;;5033231;28;19940;-82
2022/02/06 06:18:01;;;;;;;;;;;7.40;1.00;;;;;;5034124;28;19920;-81
2022/02/06 06:20:28;;;;;;;;;;;7.40;1.00;;;;;;5027962;28;19968;-81
2022/02/06 06:22:54;;;;;;;;;;;7.40;1.00;;;;;;5031675;28;19917;-81
2022/02/06 06:25:20;;;;;;;;;;;7.40;1.00;;;;;;5031002;28;19940;-81
2022/02/06 06:27:46;;;;;;;;;;;7.40;1.00;;;;;;5033020;28;20381;-81
2022/02/06 06:30:11;;;;;;;;;;;7.40;1.00;;;;;;5034916;28;19947;-80
2022/02/06 06:32:36;;;;;;;;;;;7.40;1.00;;;;;;5034360;28;19913;-80
2022/02/06 06:35:03;;;;;;;;;;;7.40;1.00;;;;;;5029886;28;19920;-81
2022/02/06 06:37:29;;;;;;;;;;;7.40;1.00;;;;;;5033078;28;20010;-81
2022/02/06 06:39:55;;;;;;;;;;;7.40;1.00;;;;;;5032571;28;19924;-80
2022/02/06 06:42:21;;;;;;;;;;;7.40;1.00;;;;;;5030252;28;19980;-82
2022/02/06 06:44:46;;;;;;;;;;;7.50;1.00;;;;;;5031017;28;20407;-82
2022/02/06 06:47:12;;;;;;;;;;;7.50;1.00;;;;;;5033011;28;20000;-82
2022/02/06 06:49:38;;;;;;;;;;;7.60;1.00;;;;;;5032854;28;20266;-82
2022/02/06 06:52:04;;;;;;;;;;;7.60;1.00;;;;;;5032355;28;19924;-82
2022/02/06 06:54:40;;;;;;;;;;;7.60;1.00;;;;;;5032352;28;21602;-82
2022/02/06 06:57:25;;;;;;;;;;;7.60;1.00;;;;;;5031801;28;20277;-82
2022/02/06 07:02:18;;;;;;;;;;;7.60;1.00;;;;;;5031079;28;19913;-82
2022/02/06 07:04:45;;;;;;;;;;;7.60;1.00;;;;;;5031090;28;19919;-82
2022/02/06 07:07:11;;;;;;;;;;;7.60;1.00;;;;;;5028819;28;19976;-82
2022/02/06 07:09:36;;;;;;;;;;;7.60;1.00;;;;;;5030954;28;19913;-82
2022/02/06 07:12:03;;;;;;;;;;;7.60;1.00;;;;;;5029471;28;19952;-82
2022/02/06 07:14:28;;;;;;;;;;;7.60;1.00;;;;;;5032820;28;19920;-83
2022/02/06 07:16:54;;;;;;;;;;;7.60;1.00;;;;;;5031673;28;19917;-82
2022/02/06 07:19:19;;;;;;;;;;;7.60;1.00;;;;;;5030214;28;19966;-82
2022/02/06 07:21:45;;;;;;;;;;;7.50;1.00;;;;;;5030433;28;19913;-82
2022/02/06 07:24:10;;;;;;;;;;;7.50;1.00;;;;;;5030157;28;20298;-82
2022/02/06 07:26:36;;;;;;;;;;;7.50;1.00;;;;;;5030008;28;19917;-82
2022/02/06 07:29:02;;;;;;;;;;;7.50;1.00;;;;;;5029491;28;19924;-82
2022/02/06 07:31:28;;;;;;;;;;;7.50;1.00;;;;;;5032991;28;19929;-83
2022/02/06 07:33:54;;;;;;;;;;;7.50;1.00;;;;;;5033462;28;19919;-82
2022/02/06 07:36:20;;;;;;;;;;;7.50;1.00;;;;;;5027795;28;19913;-82
2022/02/06 07:38:46;;;;;;;;;;;7.50;1.00;;;;;;5046947;28;19967;-82
2022/02/06 07:41:12;;;;;;;;;;;7.50;1.00;;;;;;5028812;28;19913;-82
2022/02/06 07:43:37;;;;;;;;;;;7.50;1.00;;;;;;5034123;28;20335;-82
2022/02/06 07:46:08;;;;;;;;;;;7.50;1.00;;;;;;5030942;28;19935;-82
2022/02/06 07:48:33;;;;;;;;;;;7.50;1.00;;;;;;5029213;28;19952;-82
2022/02/06 07:50:59;;;;;;;;;;;7.50;1.00;;;;;;5024743;28;19913;-83
2022/02/06 07:53:24;;;;;;;;;;;7.50;1.00;;;;;;5031063;28;19924;-82
2022/02/06 07:55:50;;;;;;;;;;;7.50;1.00;;;;;;5036955;28;19909;-82
2022/02/06 07:58:15;;;;;;;;;;;7.50;1.00;;;;;;5038109;28;19959;-82
2022/02/06 08:00:41;;;;;;;;;;;7.50;1.00;;;;;;5038751;28;19963;-82
2022/02/06 08:03:06;;;;;;;;;;;7.60;1.00;;;;;;5033914;28;19920;-82
2022/02/06 08:05:32;;;;;;;;;;;7.50;1.00;;;;;;5038314;28;19921;-82
2022/02/06 08:07:58;;;;;;;;;;;7.60;1.00;;;;;;5036724;28;19909;-82
2022/02/06 08:10:25;;;;;;;;;;;7.60;1.00;;;;;;5036839;28;20381;-82
2022/02/06 08:13:06;;;;;;;;;;;7.60;1.00;;;;;;5053080;28;20003;-81
2022/02/06 08:15:32;;;;;;;;;;;7.60;1.00;;;;;;5037925;28;19959;-82
2022/02/06 08:17:58;;;;;;;;;;;7.70;1.00;;;;;;5038225;28;20487;-83
2022/02/06 08:20:23;;;;;;;;;;;7.70;1.00;;;;;;5039139;28;19920;-82
2022/02/06 08:22:51;;;;;;;;;;;7.70;1.00;;;;;;5034747;28;19913;-81
2022/02/06 08:25:17;;;;;;;;;;;7.70;1.00;;;;;;5031746;28;19913;-82
2022/02/06 08:27:42;;;;;;;;;;;7.70;1.00;;;;;;5034764;28;20424;-82
2022/02/06 08:30:09;;;;;;;;;;;7.80;1.00;;;;;;5027853;28;19917;-82
2022/02/06 08:32:34;;;;;;;;;;;7.80;1.00;;;;;;5030447;28;19913;-82
2022/02/06 08:34:59;;;;;;;;;;;7.80;1.00;;;;;;5027781;28;19955;-81
2022/02/06 08:37:25;;;;;;;;;;;7.90;1.00;;;;;;5030641;28;19952;-82
2022/02/06 08:39:51;;;;;;;;;;;7.90;1.00;;;;;;5031523;28;19919;-82
2022/02/06 08:42:17;;;;;;;;;;;7.90;1.00;;;;;;5026784;28;20392;-82
2022/02/06 08:44:44;;;;;;;;;;;8.00;1.00;;;;;;5035155;28;19925;-81
2022/02/06 08:47:11;;;;;;;;;;;8.00;1.00;;;;;;5028503;28;20381;-82
2022/02/06 08:49:37;;;;;;;;;;;8.00;1.00;;;;;;5029746;28;20405;-82
2022/02/06 08:52:02;;;;;;;;;;;8.00;1.00;;;;;;5033433;28;19913;-82
2022/02/06 08:54:31;;;;;;;;;;;8.00;1.00;;;;;;5031029;28;20003;-82
2022/02/06 08:57:01;;;;;;;;;;;8.00;1.00;;;;;;5029467;28;19913;-81
2022/02/06 08:59:30;;;;;;;;;;;8.10;1.00;;;;;;5031004;28;19920;-82
2022/02/06 09:01:56;;;;;;;;;;;8.10;1.00;;;;;;5032841;28;19913;-82
2022/02/06 09:04:21;;;;;;;;;;;8.00;1.00;;;;;;5033924;28;19914;-82
2022/02/06 09:06:47;;;;;;;;;;;8.00;1.00;;;;;;5030971;28;20409;-82
2022/02/06 09:09:14;;;;;;;;;;;8.00;1.00;;;;;;5026636;28;20017;-82
2022/02/06 09:11:40;;;;;;;;;;;8.00;1.00;;;;;;5029650;28;19950;-82
2022/02/06 09:14:05;;;;;;;;;;;8.00;1.00;;;;;;5027698;28;19920;-82
2022/02/06 09:16:31;;;;;;;;;;;8.00;1.00;;;;;;5027531;28;19914;-82
2022/02/06 09:18:56;;;;;;;;;;;8.00;1.00;;;;;;5028496;28;19917;-82
2022/02/06 09:21:23;;;;;;;;;;;8.00;1.00;;;;;;5028927;28;19914;-81
2022/02/06 09:23:49;;;;;;;;;;;8.00;1.00;;;;;;5033830;28;19917;-80
2022/02/06 09:26:14;;;;;;;;;;;8.00;1.00;;;;;;5035145;28;19922;-82
2022/02/06 09:28:40;;;;;;;;;;;8.00;1.00;;;;;;5038087;28;20316;-81
2022/02/06 09:31:06;;;;;;;;;;;8.00;1.00;;;;;;5026913;28;19920;-82
2022/02/06 09:35:56;;;;;;;;;;;8.00;1.00;;;;;;5027719;28;19913;-81
2022/02/06 09:38:22;;;;;;;;;;;8.00;1.00;;;;;;5033378;28;19917;-82
2022/02/06 09:40:48;;;;;;;;;;;8.00;1.00;;;;;;5033145;28;19913;-81
2022/02/06 09:43:13;;;;;;;;;;;8.00;1.00;;;;;;5027988;28;19917;-82
2022/02/06 09:45:41;;;;;;;;;;;8.10;1.00;;;;;;5037329;28;19970;-82
2022/02/06 09:48:09;;;;;;;;;;;8.10;1.00;;;;;;5035634;28;20400;-82
2022/02/06 09:50:35;;;;;;;;;;;8.10;1.00;;;;;;5032962;28;19910;-83
2022/02/06 09:53:00;;;;;;;;;;;8.10;1.00;;;;;;5035702;28;19917;-83
2022/02/06 09:55:26;;;;;;;;;;;8.10;1.00;;;;;;5036082;28;19913;-81
2022/02/06 09:57:59;;;;;;;;;;;8.10;1.00;;;;;;5034573;28;19909;-81
2022/02/06 10:00:28;;;;;;;;;;;8.10;1.00;;;;;;5038826;28;19999;-81
2022/02/06 10:02:55;;;;;;;;;;;8.10;1.00;;;;;;5040655;28;19920;-81
2022/02/06 10:05:21;;;;;;;;;;;8.10;1.00;;;;;;5037166;28;20381;-81
2022/02/06 10:07:51;;;;;;;;;;;8.10;1.00;;;;;;5047567;28;19916;-81
2022/02/06 10:10:16;;;;;;;;;;;8.10;1.00;;;;;;5028727;28;19913;-81
2022/02/06 10:12:44;;;;;;;;;;;8.10;1.00;;;;;;5036495;28;19913;-81
2022/02/06 10:15:11;;;;;;;;;;;8.00;1.00;;;;;;5034856;28;19913;-82
2022/02/06 10:17:36;;;;;;;;;;;8.00;1.00;;;;;;5026325;28;19909;-81
2022/02/06 10:20:10;;;;;;;;;;;8.00;1.00;;;;;;5033803;28;19943;-81
2022/02/06 10:22:40;;;;;;;;;;;8.00;1.00;;;;;;5033537;28;20328;-81
2022/02/06 10:25:10;;;;;;;;;;;8.00;1.00;;;;;;5030894;28;19970;-80
2022/02/06 10:27:52;;;;;;;;;;;7.90;1.00;;;;;;5038318;28;20383;-82
2022/02/06 10:30:29;;;;;;;;;;;7.90;1.00;;;;;;5041730;28;19909;-82
2022/02/06 10:32:55;;;;;;;;;;;7.90;1.00;;;;;;5040965;28;19917;-81
2022/02/06 10:35:20;;;;;;;;;;;7.90;1.00;;;;;;5038558;28;19963;-82
2022/02/06 10:37:46;;;;;;;;;;;7.90;1.00;;;;;;5032070;28;20405;-81
2022/02/06 10:40:12;;;;;;;;;;;7.90;1.00;;;;;;5033199;28;19917;-82
2022/02/06 10:42:41;;;;;;;;;;;7.90;1.00;;;;;;5029465;28;19920;-81
2022/02/06 10:45:20;;;;;;;;;;;7.90;1.00;;;;;;5029497;28;20020;-82
2022/02/06 10:47:48;;;;;;;;;;;7.90;1.00;;;;;;5033186;28;19939;-82
2022/02/06 10:50:22;;;;;;;;;;;7.90;1.00;;;;;;5029027;28;20008;-83
2022/02/06 10:52:47;;;;;;;;;;;7.90;1.00;;;;;;5030167;28;19925;-83
2022/02/06 10:55:14;;;;;;;;;;;8.00;1.00;;;;;;5052024;28;20396;-83
2022/02/06 10:57:53;;;;;;;;;;;8.00;1.00;;;;;;5030496;28;19909;-83
2022/02/06 11:00:24;;;;;;;;;;;8.00;1.00;;;;;;5046759;28;19913;-83
2022/02/06 11:02:59;;;;;;;;;;;7.90;1.00;;;;;;5033684;28;20395;-83
2022/02/06 11:05:34;;;;;;;;;;;7.90;1.00;;;;;;5044855;28;19947;-84
2022/02/06 11:08:01;;;;;;;;;;;7.90;1.00;;;;;;5031390;28;20000;-84
2022/02/06 11:10:27;;;;;;;;;;;7.90;1.00;;;;;;5034412;28;20000;-83
2022/02/06 11:12:57;;;;;;;;;;;7.90;1.00;;;;;;5033375;28;19917;-83
2022/02/06 11:15:28;;;;;;;;;;;7.80;1.00;;;;;;5030010;28;19948;-85
2022/02/06 11:18:04;;;;;;;;;;;7.80;1.00;;;;;;5038609;28;20527;-84
2022/02/06 11:20:30;;;;;;;;;;;7.80;1.00;;;;;;5017342;28;19941;-83
2022/02/06 11:23:01;;;;;;;;;;;7.80;1.00;;;;;;5044453;28;19920;-83
2022/02/06 11:25:28;;;;;;;;;;;7.80;1.00;;;;;;5021328;28;20267;-84
2022/02/06 11:27:55;;;;;;;;;;;7.80;1.00;;;;;;5034371;28;20330;-82
2022/02/06 11:30:20;;;;;;;;;;;7.80;1.00;;;;;;5033145;28;20278;-82
2022/02/06 11:32:46;;;;;;;;;;;7.80;1.00;;;;;;5038498;28;19939;-82
2022/02/06 11:35:16;;;;;;;;;;;7.80;1.00;;;;;;5037774;28;19913;-83
2022/02/06 11:46:26;;;;;;;;;;;7.90;1.00;;;;;;5035317;28;19971;-82
2022/02/06 11:48:57;;;;;;;;;;;7.90;1.00;;;;;;5007807;28;19996;-83
2022/02/06 11:51:22;;;;;;;;;;;8.00;1.00;;;;;;5035033;28;20412;-82
2022/02/06 11:53:48;;;;;;;;;;;8.00;1.00;;;;;;5031986;28;19935;-82
2022/02/06 11:56:41;;;;;;;;;;;8.00;1.00;;;;;;5037836;28;19913;-83
2022/02/06 11:59:12;;;;;;;;;;;8.10;1.00;;;;;;5049285;28;19913;-83
2022/02/06 12:01:38;;;;;;;;;;;8.10;1.00;;;;;;5037530;28;19976;-83
2022/02/06 12:04:03;;;;;;;;;;;8.20;1.00;;;;;;5035302;28;20020;-83
2022/02/06 12:06:47;;;;;;;;;;;8.20;1.00;;;;;;5036001;28;19957;-84
2022/02/06 12:09:19;;;;;;;;;;;8.20;1.00;;;;;;5052978;28;20333;-84
2022/02/06 12:12:03;;;;;;;;;;;8.20;1.00;;;;;;5026185;28;19914;-82
2022/02/06 12:14:33;;;;;;;;;;;8.30;1.00;;;;;;5030092;28;19917;-83
2022/02/06 12:20:08;;;;;;;;;;;8.30;1.00;;;;;;5031774;28;19913;-83
2022/02/06 12:22:37;;;;;;;;;;;8.40;1.00;;;;;;5031880;28;19921;-83
2022/02/06 12:25:17;;;;;;;;;;;8.40;1.00;;;;;;5035895;28;19942;-83
2022/02/06 12:27:42;;;;;;;;;;;8.60;1.00;;;;;;5035502;28;19921;-83
2022/02/06 12:30:08;;;;;;;;;;;8.70;1.00;;;;;;5037137;28;20431;-83
2022/02/06 12:32:43;;;;;;;;;;;8.70;1.00;;;;;;5037612;28;19960;-84
2022/02/06 12:37:53;;;;;;;;;;;8.70;1.00;;;;;;5034555;28;19923;-84
2022/02/06 12:40:21;;;;;;;;;;;8.70;1.00;;;;;;5035603;28;19913;-83
2022/02/06 12:42:56;;;;;;;;;;;8.70;1.00;;;;;;5035386;28;19932;-84
2022/02/06 12:45:26;;;;;;;;;;;8.80;1.00;;;;;;5036617;28;19975;-84
2022/02/06 12:47:54;;;;;;;;;;;8.80;1.00;;;;;;5054841;28;19936;-83
2022/02/06 12:50:23;;;;;;;;;;;8.80;1.00;;;;;;5035092;28;19913;-83
2022/02/06 12:52:50;;;;;;;;;;;8.90;1.00;;;;;;5035311;28;19917;-83
2022/02/06 12:55:19;;;;;;;;;;;8.90;1.00;;;;;;5034622;28;19913;-83
2022/02/06 12:57:51;;;;;;;;;;;8.90;1.00;;;;;;5035104;28;20381;-83
2022/02/06 13:00:45;;;;;;;;;;;8.90;1.00;;;;;;5030068;28;19913;-83
2022/02/06 13:03:33;;;;;;;;;;;8.90;1.00;;;;;;5038373;28;19928;-84
2022/02/06 13:06:00;;;;;;;;;;;8.90;1.00;;;;;;5033392;28;20016;-83
2022/02/06 13:08:26;;;;;;;;;;;8.90;1.00;;;;;;5029019;28;19913;-83
2022/02/06 13:11:02;;;;;;;;;;;8.80;1.00;;;;;;5034433;28;20289;-83
2022/02/06 13:13:37;;;;;;;;;;;8.70;1.00;;;;;;5033775;28;19913;-83
2022/02/06 13:19:19;;;;;;;;;;;8.40;1.00;;;;;;5032973;28;19943;-83
2022/02/06 13:22:08;;;;;;;;;;;8.30;1.00;;;;;;5032095;28;19924;-83
2022/02/06 13:27:44;;;;;;;;;;;8.00;1.00;;;;;;5023656;28;20475;-83
2022/02/06 13:30:29;;;;;;;;;;;7.90;1.00;;;;;;5032238;28;19913;-83
2022/02/06 13:33:11;;;;;;;;;;;7.80;1.00;;;;;;5033391;28;19936;-84
2022/02/06 13:35:55;;;;;;;;;;;7.70;1.00;;;;;;5033103;28;19917;-84
2022/02/06 13:38:21;;;;;;;;;;;7.60;99.90;;;;;;5032568;28;19913;-84
2022/02/06 13:40:49;;;;;;;;;;;7.60;1.00;;;;;;5033892;28;19959;-84
2022/02/06 13:43:22;;;;;;;;;;;7.50;1.00;;;;;;5032928;28;19920;-84
2022/02/06 13:45:48;;;;;;;;;;;7.50;1.00;;;;;;5036687;28;19917;-84
2022/02/06 13:48:16;;;;;;;;;;;7.50;1.00;;;;;;5042995;28;19952;-83
2022/02/06 13:50:49;;;;;;;;;;;7.40;1.00;;;;;;5025090;28;19913;-84
2022/02/06 13:53:16;;;;;;;;;;;7.50;1.00;;;;;;5030042;28;19940;-83
2022/02/06 13:55:44;;;;;;;;;;;7.50;1.00;;;;;;5031716;28;19913;-84
2022/02/06 13:58:13;;;;;;;;;;;7.50;1.00;;;;;;5042449;28;19924;-84
2022/02/06 14:00:51;;;;;;;;;;;7.50;1.00;;;;;;5024881;28;19996;-84
2022/02/06 14:03:16;;;;;;;;;;;7.50;1.00;;;;;;5041900;28;19925;-84
2022/02/06 14:05:47;;;;;;;;;;;7.60;1.00;;;;;;5036749;28;19996;-84
2022/02/06 14:08:16;;;;;;;;;;;7.60;1.00;;;;;;5030957;28;19975;-84
2022/02/06 14:10:51;;;;;;;;;;;7.60;1.00;;;;;;5031860;28;20000;-84
2022/02/06 14:13:23;;;;;;;;;;;7.60;1.00;;;;;;5031062;28;19983;-83
2022/02/06 14:16:00;;;;;;;;;;;7.60;1.00;;;;;;5029692;28;19913;-84
2022/02/06 14:18:26;;;;;;;;;;;7.60;99.90;;;;;;5043426;28;19921;-85
2022/02/06 14:20:54;;;;;;;;;;;7.60;99.90;;;;;;5037066;28;19980;-84
2022/02/06 14:23:20;;;;;;;;;;;7.60;99.90;;;;;;5046893;28;19913;-84
2022/02/06 14:25:46;;;;;;;;;;;7.60;99.90;;;;;;5031052;28;19932;-84
2022/02/06 14:28:19;;;;;;;;;;;7.60;99.90;;;;;;5031534;28;19932;-85
2022/02/06 14:30:45;;;;;;;;;;;7.70;99.90;;;;;;5047034;28;19920;-84
2022/02/06 14:33:11;;;;;;;;;;;7.70;99.90;;;;;;5032190;28;19921;-85
2022/02/06 14:35:54;;;;;;;;;;;7.70;99.90;;;;;;5030826;28;19939;-85
2022/02/06 14:38:32;;;;;;;;;;;7.80;99.90;;;;;;5035973;28;20419;-84
2022/02/06 14:43:47;;;;;;;;;;;7.70;99.90;;;;;;5030230;28;19920;-84
2022/02/06 14:46:13;;;;;;;;;;;7.80;99.90;;;;;;5047002;28;19925;-84
2022/02/06 14:48:39;;;;;;;;;;;7.80;99.90;;;;;;5043705;28;19935;-84
2022/02/06 14:51:08;;;;;;;;;;;7.80;99.90;;;;;;5032219;28;20035;-85
2022/02/06 14:53:33;;;;;;;;;;;7.80;99.90;;;;;;5032933;28;19918;-85
2022/02/06 14:55:59;;;;;;;;;;;7.80;90.70;;;;;;5045154;28;19920;-85
2022/02/06 14:58:26;;;;;;;;;;;7.80;60.30;;;;;;5032448;28;19913;-85
2022/02/06 15:00:52;;;;;;;;;;;7.80;92.00;;;;;;5035988;28;19917;-85
2022/02/06 15:03:18;;;;;;;;;;;7.80;97.70;;;;;;5027077;28;19959;-85
2022/02/06 15:05:45;;;;;;;;;;;7.80;97.60;;;;;;5050658;28;19939;-85
2022/02/06 15:08:11;;;;;;;;;;;7.70;78.20;;;;;;5035928;28;19914;-85
2022/02/06 15:10:36;;;;;;;;;;;7.70;1.00;;;;;;5031569;28;19928;-85
2022/02/06 15:13:03;;;;;;;;;;;7.70;54.90;;;;;;5049402;28;19917;-85
2022/02/06 15:15:34;;;;;;;;;;;7.70;99.90;;;;;;5035608;28;19921;-85
2022/02/06 15:18:09;;;;;;;;;;;7.60;99.90;;;;;;5030289;28;20246;-86
2022/02/06 15:20:34;;;;;;;;;;;7.60;99.90;;;;;;5034297;28;19988;-86
2022/02/06 15:23:01;;;;;;;;;;;7.50;1.00;;;;;;5038990;28;19957;-84
2022/02/06 15:25:26;;;;;;;;;;;7.40;1.00;;;;;;5035318;28;19955;-86
2022/02/06 15:27:52;;;;;;;;;;;7.50;1.00;;;;;;5033797;28;19913;-84
2022/02/06 15:30:17;;;;;;;;;;;7.40;1.00;;;;;;5046217;28;19936;-83
2022/02/06 15:32:42;;;;;;;;;;;7.40;1.00;;;;;;5034046;28;19956;-84
2022/02/06 15:35:11;;;;;;;;;;;7.40;1.00;;;;;;5033338;28;20372;-86
2022/02/06 15:37:37;;;;;;;;;;;7.40;1.00;;;;;;5039685;28;19972;-86
2022/02/06 15:40:10;;;;;;;;;;;7.40;1.00;;;;;;5052444;28;19913;-85
2022/02/06 15:42:35;;;;;;;;;;;7.40;1.00;;;;;;5049475;28;19983;-85
2022/02/06 15:45:01;;;;;;;;;;;7.40;1.00;;;;;;5032959;28;19917;-84
2022/02/06 15:47:28;;;;;;;;;;;7.40;1.00;;;;;;5026292;28;19917;-84
2022/02/06 15:49:53;;;;;;;;;;;7.40;1.00;;;;;;5031161;28;19968;-84
2022/02/06 15:52:19;;;;;;;;;;;7.30;1.00;;;;;;5034739;28;20328;-84
2022/02/06 15:54:45;;;;;;;;;;;7.30;1.00;;;;;;5035048;28;19913;-83
2022/02/06 15:57:11;;;;;;;;;;;7.30;1.00;;;;;;5036135;28;19909;-83
2022/02/06 15:59:36;;;;;;;;;;;7.30;1.00;;;;;;5035199;28;21323;-83
2022/02/06 16:02:02;;;;;;;;;;;7.30;99.90;;;;;;5035514;28;20488;-83
2022/02/06 16:04:27;;;;;;;;;;;7.20;99.90;;;;;;5034098;28;19909;-83
2022/02/06 16:06:53;;;;;;;;;;;7.30;99.90;;;;;;5036191;28;19921;-83
2022/02/06 16:09:27;;;;;;;;;;;7.20;99.90;;;;;;5033935;28;19977;-83
2022/02/06 16:11:52;;;;;;;;;;;7.20;99.90;;;;;;5051124;28;19955;-83
2022/02/06 16:14:18;;;;;;;;;;;7.30;99.90;;;;;;5035637;28;19909;-83
2022/02/06 16:16:43;;;;;;;;;;;7.30;99.90;;;;;;5038046;28;19920;-83
2022/02/06 16:19:09;;;;;;;;;;;7.20;99.90;;;;;;5039506;28;20339;-83
2022/02/06 16:21:34;;;;;;;;;;;7.20;99.90;;;;;;5036755;28;19909;-83
2022/02/06 16:24:00;;;;;;;;;;;7.20;99.90;;;;;;5033990;28;20373;-84
2022/02/06 16:26:25;;;;;;;;;;;7.20;99.90;;;;;;5036564;28;19913;-83
2022/02/06 16:28:53;;;;;;;;;;;7.30;99.90;;;;;;5038698;28;19917;-84
2022/02/06 16:31:19;;;;;;;;;;;7.30;99.90;;;;;;5037559;28;19964;-84
2022/02/06 16:33:45;;;;;;;;;;;7.30;99.90;;;;;;5033705;28;19921;-84
2022/02/06 16:36:11;;;;;;;;;;;7.30;99.90;;;;;;5035115;28;19909;-84
2022/02/06 16:38:36;;;;;;;;;;;7.30;99.90;;;;;;5037339;28;20636;-84
2022/02/06 16:41:03;;;;;;;;;;;7.30;99.90;;;;;;5037712;28;20300;-83
2022/02/06 16:43:29;;;;;;;;;;;7.30;99.90;;;;;;5033948;28;19964;-83
2022/02/06 16:45:54;;;;;;;;;;;7.40;99.90;;;;;;5038302;28;19917;-84
2022/02/06 16:48:20;;;;;;;;;;;7.40;99.90;;;;;;5037680;28;19909;-83
2022/02/06 16:50:49;;;;;;;;;;;7.50;99.90;;;;;;5029956;28;19931;-83
2022/02/06 16:53:15;;;;;;;;;;;7.50;99.90;;;;;;5038647;28;19921;-84
2022/02/06 16:55:40;;;;;;;;;;;7.50;99.90;;;;;;5037701;28;19913;-81
2022/02/06 16:58:06;;;;;;;;;;;7.50;99.90;;;;;;5036518;28;20416;-81
2022/02/06 17:00:31;;;;;;;;;;;7.50;99.90;;;;;;5036181;28;19975;-81
2022/02/06 17:02:57;;;;;;;;;;;7.50;99.90;;;;;;5052447;28;19913;-81
2022/02/06 17:05:22;;;;;;;;;;;7.50;99.90;;;;;;5031958;28;19913;-81
2022/02/06 17:07:49;;;;;;;;;;;7.40;99.90;;;;;;5038331;28;19920;-80
2022/02/06 17:10:15;;;;;;;;;;;7.40;99.90;;;;;;5041443;28;19958;-81
2022/02/06 17:12:40;;;;;;;;;;;7.40;99.90;;;;;;5032411;28;20004;-80
2022/02/06 17:15:05;;;;;;;;;;;7.40;1.00;;;;;;5052235;28;19944;-81
2022/02/06 17:17:31;;;;;;;;;;;7.30;1.00;;;;;;5052553;28;19917;-80
2022/02/06 17:19:57;;;;;;;;;;;7.30;1.00;;;;;;5050906;28;19968;-80